createdAt,value
2022-11-22T00:01:30.453Z,150.55
2022-11-22T00:16:30.462Z,157.65
2022-11-22T00:31:30.473Z,155.58
2022-11-22T00:46:30.582Z,166.36
2022-11-22T01:01:30.568Z,172.84
2022-11-22T01:16:30.579Z,172.58
2022-11-22T01:31:30.566Z,182.36
2022-11-22T01:46:30.636Z,181.72
2022-11-22T02:01:30.735Z,181.19
2022-11-22T02:16:30.692Z,195.47
2022-11-22T02:31:30.753Z,182.97
2022-11-22T02:46:30.740Z,189.53
2022-11-22T03:01:30.830Z,189.16
2022-11-22T03:16:30.757Z,179.90
2022-11-22T03:31:30.767Z,185.48
2022-11-22T03:46:30.863Z,182.20
2022-11-22T04:01:30.917Z,179.21
2022-11-22T04:16:30.876Z,183.20
2022-11-22T04:31:30.889Z,186.45
2022-11-22T04:46:30.974Z,190.76
2022-11-22T05:01:31.006Z,185.77
2022-11-22T05:16:31.003Z,176.68
2022-11-22T05:31:30.994Z,178.14
2022-11-22T05:46:31.107Z,183.75
2022-11-22T06:01:31.101Z,200.42
2022-11-22T06:16:31.123Z,189.15
2022-11-22T06:31:31.115Z,190.54
2022-11-22T06:46:31.239Z,185.79
2022-11-22T07:01:31.355Z,182.86
2022-11-22T07:16:31.242Z,172.52
2022-11-22T07:31:31.220Z,170.62
2022-11-22T07:46:31.971Z,163.72
2022-11-22T08:01:31.337Z,166.37
2022-11-22T08:16:31.363Z,167.11
2022-11-22T08:31:31.393Z,168.30
2022-11-22T08:46:31.422Z,167.34
2022-11-22T09:01:31.576Z,170.07
2022-11-22T09:16:31.484Z,172.40
2022-11-22T09:31:31.541Z,185.43
2022-11-22T09:46:31.622Z,181.15
2022-11-22T10:01:31.739Z,181.22
2022-11-22T10:16:31.622Z,182.16
2022-11-22T10:31:31.667Z,172.43
2022-11-22T10:46:31.840Z,174.30
2022-11-22T11:01:31.819Z,177.53
2022-11-22T11:16:31.838Z,167.21
2022-11-22T11:31:31.882Z,165.52
2022-11-22T11:46:31.890Z,174.60
2022-11-22T12:01:37.209Z,172.21
2022-11-22T12:16:31.862Z,176.53
2022-11-22T12:31:32.202Z,166.31
2022-11-22T12:46:31.987Z,174.52
2022-11-22T13:01:32.083Z,171.54
2022-11-22T13:16:32.129Z,173.39
2022-11-22T13:31:36.612Z,182.17
2022-11-22T13:46:32.143Z,180.86
2022-11-22T14:01:32.220Z,174.22
2022-11-22T14:16:32.164Z,168.24
2022-11-22T14:31:32.145Z,166.77
2022-11-22T14:46:52.278Z,160.87
2022-11-22T15:01:32.335Z,177.82
2022-11-22T16:01:32.444Z,173.17
2022-11-22T16:16:32.385Z,185.51
2022-11-22T16:31:32.452Z,180.57
2022-11-22T16:46:32.473Z,188.17
2022-11-22T17:01:32.720Z,183.39
2022-11-22T17:16:32.517Z,188.26
2022-11-22T17:31:32.620Z,188.54
2022-11-22T17:46:32.615Z,186.12
2022-11-22T18:01:32.604Z,173.06
2022-11-22T18:16:32.601Z,178.45
2022-11-22T18:31:50.815Z,173.09
2022-11-22T18:46:32.747Z,169.72
2022-11-22T19:01:32.841Z,175.59
2022-11-22T19:16:32.864Z,174.73
2022-11-22T19:31:32.821Z,165.68
2022-11-22T19:46:33.369Z,163.51
2022-11-22T20:01:32.967Z,164.67
2022-11-22T20:16:33.015Z,158.99
2022-11-22T20:31:32.876Z,170.41
2022-11-22T20:46:33.020Z,170.83
2022-11-22T21:01:33.025Z,168.99
2022-11-22T21:16:32.997Z,184.22
2022-11-22T21:31:33.088Z,171.40
2022-11-22T21:46:33.243Z,175.18
2022-11-22T22:01:33.260Z,173.97
2022-11-22T22:16:33.101Z,162.08
2022-11-22T22:31:33.117Z,161.69
2022-11-22T22:46:33.210Z,170.19
2022-11-22T23:01:33.291Z,169.22
2022-11-22T23:16:33.582Z,174.11
2022-11-22T23:31:33.302Z,176.05
2022-11-22T23:46:33.384Z,171.81
